sensor_id;sensor_type;location;lat;lon;timestamp;P1;durP1;ratioP1;P2;durP2;ratioP2
32451;SDS011;45528;52.102;5.242;2023-04-30T00:02:02;16.7;;;9.6;;
32451;SDS011;45528;52.102;5.242;2023-04-30T00:03:38;16.2;;;9.71;;
32451;SDS011;45528;52.102;5.242;2023-04-30T00:05:14;15.9;;;9.81;;
32451;SDS011;45528;52.102;5.242;2023-04-30T00:08:26;16.3;;;9.71;;
32451;SDS011;45528;52.102;5.242;2023-04-30T00:10:03;14.4;;;8.71;;
32451;SDS011;45528;52.102;5.242;2023-04-30T00:11:39;15.9;;;8.5;;
32451;SDS011;45528;52.102;5.242;2023-04-30T00:13:16;13.7;;;7.9;;
32451;SDS011;45528;52.102;5.242;2023-04-30T00:16:28;13.6;;;8.0;;
32451;SDS011;45528;52.102;5.242;2023-04-30T00:18:04;14.5;;;8.71;;
32451;SDS011;45528;52.102;5.242;2023-04-30T00:19:40;15.0;;;9.1;;
32451;SDS011;45528;52.102;5.242;2023-04-30T00:22:54;17.11;;;9.31;;
32451;SDS011;45528;52.102;5.242;2023-04-30T00:24:30;15.2;;;8.5;;
32451;SDS011;45528;52.102;5.242;2023-04-30T00:26:06;14.4;;;9.1;;
32451;SDS011;45528;52.102;5.242;2023-04-30T00:29:19;15.0;;;8.9;;
32451;SDS011;45528;52.102;5.242;2023-04-30T00:30:55;18.41;;;9.71;;
32451;SDS011;45528;52.102;5.242;2023-04-30T00:32:31;18.3;;;10.21;;
32451;SDS011;45528;52.102;5.242;2023-04-30T00:35:43;14.6;;;9.21;;
32451;SDS011;45528;52.102;5.242;2023-04-30T00:37:19;17.2;;;9.31;;
32451;SDS011;45528;52.102;5.242;2023-04-30T00:38:55;15.8;;;9.9;;
32451;SDS011;45528;52.102;5.242;2023-04-30T00:40:32;15.1;;;9.4;;
32451;SDS011;45528;52.102;5.242;2023-04-30T00:43:45;16.2;;;9.21;;
32451;SDS011;45528;52.102;5.242;2023-04-30T00:45:21;18.0;;;9.4;;
32451;SDS011;45528;52.102;5.242;2023-04-30T00:46:57;15.1;;;8.9;;
32451;SDS011;45528;52.102;5.242;2023-04-30T00:50:09;19.8;;;9.21;;
32451;SDS011;45528;52.102;5.242;2023-04-30T00:51:45;16.5;;;8.81;;
32451;SDS011;45528;52.102;5.242;2023-04-30T00:53:22;15.0;;;8.81;;
32451;SDS011;45528;52.102;5.242;2023-04-30T00:56:36;14.0;;;9.31;;
32451;SDS011;45528;52.102;5.242;2023-04-30T00:58:12;16.0;;;10.0;;
32451;SDS011;45528;52.102;5.242;2023-04-30T00:59:48;15.9;;;9.4;;
32451;SDS011;45528;52.102;5.242;2023-04-30T01:01:25;14.7;;;9.1;;
32451;SDS011;45528;52.102;5.242;2023-04-30T01:04:38;15.4;;;9.0;;
32451;SDS011;45528;52.102;5.242;2023-04-30T01:06:14;16.8;;;8.5;;
32451;SDS011;45528;52.102;5.242;2023-04-30T01:07:51;17.8;;;9.4;;
32451;SDS011;45528;52.102;5.242;2023-04-30T01:11:09;15.0;;;9.21;;
32451;SDS011;45528;52.102;5.242;2023-04-30T01:12:57;15.9;;;9.1;;
32451;SDS011;45528;52.102;5.242;2023-04-30T01:14:44;15.3;;;9.0;;
32451;SDS011;45528;52.102;5.242;2023-04-30T01:16:35;15.2;;;9.0;;
32451;SDS011;45528;52.102;5.242;2023-04-30T01:18:19;16.61;;;9.21;;
32451;SDS011;45528;52.102;5.242;2023-04-30T01:21:41;18.8;;;9.71;;
32451;SDS011;45528;52.102;5.242;2023-04-30T01:23:19;18.7;;;9.9;;
32451;SDS011;45528;52.102;5.242;2023-04-30T01:25:34;14.1;;;8.81;;
32451;SDS011;45528;52.102;5.242;2023-04-30T01:27:30;16.8;;;9.31;;
32451;SDS011;45528;52.102;5.242;2023-04-30T01:29:15;18.5;;;9.5;;
32451;SDS011;45528;52.102;5.242;2023-04-30T01:30:54;13.8;;;8.9;;
32451;SDS011;45528;52.102;5.242;2023-04-30T01:34:06;14.9;;;8.5;;
32451;SDS011;45528;52.102;5.242;2023-04-30T01:35:46;13.2;;;8.81;;
32451;SDS011;45528;52.102;5.242;2023-04-30T01:37:41;13.8;;;8.71;;
32451;SDS011;45528;52.102;5.242;2023-04-30T01:40:09;14.8;;;7.9;;
32451;SDS011;45528;52.102;5.242;2023-04-30T01:42:01;13.3;;;7.7;;
32451;SDS011;45528;52.102;5.242;2023-04-30T01:43:54;14.4;;;8.1;;
32451;SDS011;45528;52.102;5.242;2023-04-30T01:45:46;14.8;;;8.0;;
32451;SDS011;45528;52.102;5.242;2023-04-30T01:47:34;12.6;;;8.31;;
32451;SDS011;45528;52.102;5.242;2023-04-30T01:51:14;15.9;;;7.9;;
32451;SDS011;45528;52.102;5.242;2023-04-30T01:53:01;14.9;;;8.71;;
32451;SDS011;45528;52.102;5.242;2023-04-30T01:54:44;14.1;;;8.1;;
32451;SDS011;45528;52.102;5.242;2023-04-30T01:56:26;11.4;;;7.8;;
32451;SDS011;45528;52.102;5.242;2023-04-30T01:58:09;15.0;;;8.4;;
32451;SDS011;45528;52.102;5.242;2023-04-30T02:01:25;12.0;;;8.1;;
32451;SDS011;45528;52.102;5.242;2023-04-30T02:03:03;15.1;;;8.5;;
32451;SDS011;45528;52.102;5.242;2023-04-30T02:04:40;15.9;;;8.2;;
32451;SDS011;45528;52.102;5.242;2023-04-30T02:06:16;16.3;;;8.71;;
32451;SDS011;45528;52.102;5.242;2023-04-30T02:09:28;13.2;;;7.9;;
32451;SDS011;45528;52.102;5.242;2023-04-30T02:11:04;14.1;;;7.7;;
32451;SDS011;45528;52.102;5.242;2023-04-30T02:12:40;14.0;;;7.9;;
32451;SDS011;45528;52.102;5.242;2023-04-30T02:15:53;11.6;;;7.8;;
32451;SDS011;45528;52.102;5.242;2023-04-30T02:17:30;14.9;;;8.81;;
32451;SDS011;45528;52.102;5.242;2023-04-30T02:19:07;14.8;;;8.2;;
32451;SDS011;45528;52.102;5.242;2023-04-30T02:22:20;17.41;;;9.0;;
32451;SDS011;45528;52.102;5.242;2023-04-30T02:23:56;15.6;;;9.81;;
32451;SDS011;45528;52.102;5.242;2023-04-30T02:25:32;18.5;;;9.31;;
32451;SDS011;45528;52.102;5.242;2023-04-30T02:27:08;13.6;;;8.31;;
32451;SDS011;45528;52.102;5.242;2023-04-30T02:30:20;13.3;;;8.1;;
32451;SDS011;45528;52.102;5.242;2023-04-30T02:31:57;16.5;;;8.81;;
32451;SDS011;45528;52.102;5.242;2023-04-30T02:33:34;16.5;;;8.81;;
32451;SDS011;45528;52.102;5.242;2023-04-30T02:36:46;14.6;;;9.4;;
32451;SDS011;45528;52.102;5.242;2023-04-30T02:38:22;14.5;;;9.1;;
32451;SDS011;45528;52.102;5.242;2023-04-30T02:39:59;15.5;;;9.71;;
32451;SDS011;45528;52.102;5.242;2023-04-30T02:43:11;19.41;;;9.9;;
32451;SDS011;45528;52.102;5.242;2023-04-30T02:44:47;18.7;;;10.4;;
32451;SDS011;45528;52.102;5.242;2023-04-30T02:46:23;18.2;;;10.5;;
32451;SDS011;45528;52.102;5.242;2023-04-30T02:49:35;16.3;;;10.21;;
32451;SDS011;45528;52.102;5.242;2023-04-30T02:51:11;15.8;;;9.5;;
32451;SDS011;45528;52.102;5.242;2023-04-30T02:52:48;16.3;;;9.81;;
32451;SDS011;45528;52.102;5.242;2023-04-30T02:54:24;19.41;;;9.71;;
32451;SDS011;45528;52.102;5.242;2023-04-30T02:57:36;19.8;;;11.0;;
32451;SDS011;45528;52.102;5.242;2023-04-30T02:59:13;17.41;;;10.21;;
32451;SDS011;45528;52.102;5.242;2023-04-30T03:00:49;13.9;;;9.21;;
32451;SDS011;45528;52.102;5.242;2023-04-30T03:04:01;16.8;;;9.31;;
32451;SDS011;45528;52.102;5.242;2023-04-30T03:05:37;15.7;;;10.6;;
32451;SDS011;45528;52.102;5.242;2023-04-30T03:07:14;18.11;;;9.81;;
32451;SDS011;45528;52.102;5.242;2023-04-30T03:10:27;16.2;;;9.81;;
32451;SDS011;45528;52.102;5.242;2023-04-30T03:12:03;15.9;;;9.9;;
32451;SDS011;45528;52.102;5.242;2023-04-30T03:13:41;16.61;;;10.6;;
32451;SDS011;45528;52.102;5.242;2023-04-30T03:15:18;16.7;;;10.7;;
32451;SDS011;45528;52.102;5.242;2023-04-30T03:18:31;16.3;;;10.3;;
32451;SDS011;45528;52.102;5.242;2023-04-30T03:20:08;17.3;;;10.5;;
32451;SDS011;45528;52.102;5.242;2023-04-30T03:21:46;16.2;;;10.6;;
32451;SDS011;45528;52.102;5.242;2023-04-30T03:24:59;17.7;;;11.5;;
32451;SDS011;45528;52.102;5.242;2023-04-30T03:26:35;17.3;;;11.0;;
32451;SDS011;45528;52.102;5.242;2023-04-30T03:28:12;20.0;;;12.4;;
32451;SDS011;45528;52.102;5.242;2023-04-30T03:31:25;18.7;;;10.1;;
32451;SDS011;45528;52.102;5.242;2023-04-30T03:33:02;17.91;;;11.9;;
32451;SDS011;45528;52.102;5.242;2023-04-30T03:34:40;16.5;;;9.81;;
32451;SDS011;45528;52.102;5.242;2023-04-30T03:36:16;15.4;;;9.9;;
32451;SDS011;45528;52.102;5.242;2023-04-30T03:39:28;17.2;;;10.0;;
32451;SDS011;45528;52.102;5.242;2023-04-30T03:41:05;18.5;;;10.3;;
32451;SDS011;45528;52.102;5.242;2023-04-30T03:42:42;18.2;;;10.3;;
32451;SDS011;45528;52.102;5.242;2023-04-30T03:45:54;16.0;;;9.9;;
32451;SDS011;45528;52.102;5.242;2023-04-30T03:47:31;20.41;;;10.6;;
32451;SDS011;45528;52.102;5.242;2023-04-30T03:49:07;17.41;;;10.7;;
32451;SDS011;45528;52.102;5.242;2023-04-30T03:52:20;18.5;;;10.1;;
32451;SDS011;45528;52.102;5.242;2023-04-30T03:53:56;19.41;;;10.7;;
32451;SDS011;45528;52.102;5.242;2023-04-30T03:55:32;18.3;;;11.2;;
32451;SDS011;45528;52.102;5.242;2023-04-30T03:57:09;16.0;;;10.7;;
32451;SDS011;45528;52.102;5.242;2023-04-30T04:00:21;17.5;;;11.0;;
32451;SDS011;45528;52.102;5.242;2023-04-30T04:01:58;16.2;;;10.21;;
32451;SDS011;45528;52.102;5.242;2023-04-30T04:03:35;17.0;;;10.1;;
32451;SDS011;45528;52.102;5.242;2023-04-30T04:06:47;18.5;;;10.7;;
32451;SDS011;45528;52.102;5.242;2023-04-30T04:08:23;14.1;;;9.4;;
32451;SDS011;45528;52.102;5.242;2023-04-30T04:09:59;18.0;;;10.8;;
32451;SDS011;45528;52.102;5.242;2023-04-30T04:13:11;17.11;;;9.9;;
32451;SDS011;45528;52.102;5.242;2023-04-30T04:14:48;15.6;;;9.71;;
32451;SDS011;45528;52.102;5.242;2023-04-30T04:16:24;17.0;;;10.4;;
32451;SDS011;45528;52.102;5.242;2023-04-30T04:19:36;17.41;;;11.1;;
32451;SDS011;45528;52.102;5.242;2023-04-30T04:21:12;15.0;;;10.21;;
32451;SDS011;45528;52.102;5.242;2023-04-30T04:22:48;17.8;;;10.6;;
32451;SDS011;45528;52.102;5.242;2023-04-30T04:24:24;18.8;;;11.6;;
32451;SDS011;45528;52.102;5.242;2023-04-30T04:27:37;18.7;;;11.5;;
32451;SDS011;45528;52.102;5.242;2023-04-30T04:29:13;19.11;;;12.4;;
32451;SDS011;45528;52.102;5.242;2023-04-30T04:30:50;16.8;;;11.3;;
32451;SDS011;45528;52.102;5.242;2023-04-30T04:34:02;17.61;;;11.4;;
32451;SDS011;45528;52.102;5.242;2023-04-30T04:35:41;18.41;;;11.3;;
32451;SDS011;45528;52.102;5.242;2023-04-30T04:37:17;19.91;;;12.1;;
32451;SDS011;45528;52.102;5.242;2023-04-30T04:40:30;19.8;;;11.2;;
32451;SDS011;45528;52.102;5.242;2023-04-30T04:42:06;19.2;;;11.9;;
32451;SDS011;45528;52.102;5.242;2023-04-30T04:43:42;19.7;;;11.3;;
32451;SDS011;45528;52.102;5.242;2023-04-30T04:45:19;19.3;;;11.4;;
32451;SDS011;45528;52.102;5.242;2023-04-30T04:48:32;16.9;;;10.9;;
32451;SDS011;45528;52.102;5.242;2023-04-30T04:50:08;18.91;;;11.2;;
32451;SDS011;45528;52.102;5.242;2023-04-30T04:51:45;17.8;;;11.5;;
32451;SDS011;45528;52.102;5.242;2023-04-30T04:54:57;19.11;;;11.0;;
32451;SDS011;45528;52.102;5.242;2023-04-30T04:56:33;17.5;;;11.1;;
32451;SDS011;45528;52.102;5.242;2023-04-30T04:58:09;15.8;;;10.5;;
32451;SDS011;45528;52.102;5.242;2023-04-30T05:01:22;16.11;;;10.0;;
32451;SDS011;45528;52.102;5.242;2023-04-30T05:02:58;17.91;;;10.7;;
32451;SDS011;45528;52.102;5.242;2023-04-30T05:04:34;17.5;;;11.0;;
32451;SDS011;45528;52.102;5.242;2023-04-30T05:06:10;17.41;;;11.6;;
32451;SDS011;45528;52.102;5.242;2023-04-30T05:09:22;19.3;;;11.1;;
32451;SDS011;45528;52.102;5.242;2023-04-30T05:10:59;17.0;;;11.1;;
32451;SDS011;45528;52.102;5.242;2023-04-30T05:12:36;17.2;;;11.0;;
32451;SDS011;45528;52.102;5.242;2023-04-30T05:15:49;18.2;;;10.9;;
32451;SDS011;45528;52.102;5.242;2023-04-30T05:17:27;17.41;;;11.2;;
32451;SDS011;45528;52.102;5.242;2023-04-30T05:19:03;16.2;;;11.2;;
32451;SDS011;45528;52.102;5.242;2023-04-30T05:22:15;18.5;;;11.8;;
32451;SDS011;45528;52.102;5.242;2023-04-30T05:23:51;18.2;;;10.9;;
32451;SDS011;45528;52.102;5.242;2023-04-30T05:25:27;18.41;;;10.0;;
32451;SDS011;45528;52.102;5.242;2023-04-30T05:27:04;18.0;;;10.6;;
32451;SDS011;45528;52.102;5.242;2023-04-30T05:30:16;17.0;;;10.6;;
32451;SDS011;45528;52.102;5.242;2023-04-30T05:31:52;16.7;;;10.9;;
32451;SDS011;45528;52.102;5.242;2023-04-30T05:33:28;14.4;;;9.6;;
32451;SDS011;45528;52.102;5.242;2023-04-30T05:36:41;15.3;;;9.71;;
32451;SDS011;45528;52.102;5.242;2023-04-30T05:38:17;16.5;;;9.71;;
32451;SDS011;45528;52.102;5.242;2023-04-30T05:39:54;14.7;;;9.81;;
32451;SDS011;45528;52.102;5.242;2023-04-30T05:43:07;12.9;;;9.1;;
32451;SDS011;45528;52.102;5.242;2023-04-30T05:44:43;16.61;;;9.31;;
32451;SDS011;45528;52.102;5.242;2023-04-30T05:46:19;14.7;;;10.0;;
32451;SDS011;45528;52.102;5.242;2023-04-30T05:49:31;16.0;;;8.5;;
32451;SDS011;45528;52.102;5.242;2023-04-30T05:51:07;16.0;;;8.5;;
32451;SDS011;45528;52.102;5.242;2023-04-30T05:52:43;12.2;;;8.4;;
32451;SDS011;45528;52.102;5.242;2023-04-30T05:54:20;14.0;;;8.2;;
32451;SDS011;45528;52.102;5.242;2023-04-30T05:57:33;15.7;;;7.7;;
32451;SDS011;45528;52.102;5.242;2023-04-30T05:59:09;11.8;;;7.9;;
32451;SDS011;45528;52.102;5.242;2023-04-30T06:00:47;11.5;;;7.7;;
32451;SDS011;45528;52.102;5.242;2023-04-30T06:03:59;11.6;;;7.7;;
32451;SDS011;45528;52.102;5.242;2023-04-30T06:05:36;12.3;;;6.9;;
32451;SDS011;45528;52.102;5.242;2023-04-30T06:07:13;13.8;;;7.0;;
32451;SDS011;45528;52.102;5.242;2023-04-30T06:10:25;10.4;;;6.9;;
32451;SDS011;45528;52.102;5.242;2023-04-30T06:12:01;14.1;;;7.7;;
32451;SDS011;45528;52.102;5.242;2023-04-30T06:13:38;12.7;;;7.5;;
32451;SDS011;45528;52.102;5.242;2023-04-30T06:15:15;14.9;;;6.9;;
32451;SDS011;45528;52.102;5.242;2023-04-30T06:18:28;10.4;;;6.7;;
32451;SDS011;45528;52.102;5.242;2023-04-30T06:20:04;13.5;;;6.6;;
32451;SDS011;45528;52.102;5.242;2023-04-30T06:21:42;10.8;;;6.7;;
32451;SDS011;45528;52.102;5.242;2023-04-30T06:24:55;9.81;;;6.4;;
32451;SDS011;45528;52.102;5.242;2023-04-30T06:26:31;12.6;;;6.7;;
32451;SDS011;45528;52.102;5.242;2023-04-30T06:28:07;10.8;;;6.0;;
32451;SDS011;45528;52.102;5.242;2023-04-30T06:31:19;11.7;;;6.3;;
32451;SDS011;45528;52.102;5.242;2023-04-30T06:32:57;11.0;;;5.9;;
32451;SDS011;45528;52.102;5.242;2023-04-30T06:34:33;12.0;;;6.3;;
32451;SDS011;45528;52.102;5.242;2023-04-30T06:36:10;13.1;;;6.2;;
32451;SDS011;45528;52.102;5.242;2023-04-30T06:39:22;11.6;;;5.7;;
32451;SDS011;45528;52.102;5.242;2023-04-30T06:40:58;10.7;;;5.9;;
32451;SDS011;45528;52.102;5.242;2023-04-30T06:42:34;12.1;;;6.2;;
32451;SDS011;45528;52.102;5.242;2023-04-30T06:45:47;11.8;;;5.7;;
32451;SDS011;45528;52.102;5.242;2023-04-30T06:47:23;10.7;;;5.9;;
32451;SDS011;45528;52.102;5.242;2023-04-30T06:48:59;10.7;;;5.4;;
32451;SDS011;45528;52.102;5.242;2023-04-30T06:52:13;9.81;;;5.4;;
32451;SDS011;45528;52.102;5.242;2023-04-30T06:53:49;9.81;;;6.1;;
32451;SDS011;45528;52.102;5.242;2023-04-30T06:55:25;11.4;;;6.0;;
32451;SDS011;45528;52.102;5.242;2023-04-30T06:57:02;11.6;;;6.1;;
32451;SDS011;45528;52.102;5.242;2023-04-30T07:00:14;13.0;;;6.1;;
32451;SDS011;45528;52.102;5.242;2023-04-30T07:01:50;9.6;;;6.2;;
32451;SDS011;45528;52.102;5.242;2023-04-30T07:03:27;11.4;;;5.9;;
32451;SDS011;45528;52.102;5.242;2023-04-30T07:06:40;11.4;;;5.8;;
32451;SDS011;45528;52.102;5.242;2023-04-30T07:08:16;11.2;;;5.7;;
32451;SDS011;45528;52.102;5.242;2023-04-30T07:09:53;10.8;;;5.7;;
32451;SDS011;45528;52.102;5.242;2023-04-30T07:13:06;9.1;;;4.91;;
32451;SDS011;45528;52.102;5.242;2023-04-30T07:14:42;9.5;;;5.7;;
32451;SDS011;45528;52.102;5.242;2023-04-30T07:16:18;11.9;;;5.6;;
32451;SDS011;45528;52.102;5.242;2023-04-30T07:19:30;9.31;;;5.4;;
32451;SDS011;45528;52.102;5.242;2023-04-30T07:21:06;11.4;;;5.7;;
32451;SDS011;45528;52.102;5.242;2023-04-30T07:22:43;13.8;;;5.8;;
32451;SDS011;45528;52.102;5.242;2023-04-30T07:24:20;8.1;;;5.0;;
32451;SDS011;45528;52.102;5.242;2023-04-30T07:27:33;9.4;;;5.7;;
32451;SDS011;45528;52.102;5.242;2023-04-30T07:29:09;10.1;;;5.2;;
32451;SDS011;45528;52.102;5.242;2023-04-30T07:30:45;9.6;;;5.5;;
32451;SDS011;45528;52.102;5.242;2023-04-30T07:33:57;9.5;;;5.6;;
32451;SDS011;45528;52.102;5.242;2023-04-30T07:35:34;9.21;;;5.5;;
32451;SDS011;45528;52.102;5.242;2023-04-30T07:37:10;9.71;;;5.5;;
32451;SDS011;45528;52.102;5.242;2023-04-30T07:40:23;10.1;;;5.11;;
32451;SDS011;45528;52.102;5.242;2023-04-30T07:41:59;9.6;;;5.9;;
32451;SDS011;45528;52.102;5.242;2023-04-30T07:43:35;10.6;;;6.0;;
32451;SDS011;45528;52.102;5.242;2023-04-30T07:45:11;9.4;;;5.9;;
32451;SDS011;45528;52.102;5.242;2023-04-30T07:48:25;10.3;;;5.7;;
32451;SDS011;45528;52.102;5.242;2023-04-30T07:50:02;10.6;;;5.7;;
32451;SDS011;45528;52.102;5.242;2023-04-30T07:51:39;8.5;;;5.9;;
32451;SDS011;45528;52.102;5.242;2023-04-30T07:54:53;8.2;;;5.5;;
32451;SDS011;45528;52.102;5.242;2023-04-30T07:56:29;9.0;;;5.8;;
32451;SDS011;45528;52.102;5.242;2023-04-30T07:58:05;9.0;;;5.8;;
32451;SDS011;45528;52.102;5.242;2023-04-30T08:01:17;9.9;;;5.7;;
32451;SDS011;45528;52.102;5.242;2023-04-30T08:02:54;8.31;;;5.2;;
32451;SDS011;45528;52.102;5.242;2023-04-30T08:04:30;11.0;;;5.7;;
32451;SDS011;45528;52.102;5.242;2023-04-30T08:06:06;10.0;;;5.7;;
32451;SDS011;45528;52.102;5.242;2023-04-30T08:09:18;9.81;;;5.7;;
32451;SDS011;45528;52.102;5.242;2023-04-30T08:10:54;7.3;;;5.3;;
32451;SDS011;45528;52.102;5.242;2023-04-30T08:12:30;9.9;;;5.7;;
32451;SDS011;45528;52.102;5.242;2023-04-30T08:15:46;9.9;;;5.7;;
32451;SDS011;45528;52.102;5.242;2023-04-30T08:17:22;8.81;;;5.4;;
32451;SDS011;45528;52.102;5.242;2023-04-30T08:18:58;9.0;;;5.2;;
32451;SDS011;45528;52.102;5.242;2023-04-30T08:22:10;11.5;;;5.4;;
32451;SDS011;45528;52.102;5.242;2023-04-30T08:23:46;8.9;;;5.6;;
32451;SDS011;45528;52.102;5.242;2023-04-30T08:25:22;8.81;;;5.4;;
32451;SDS011;45528;52.102;5.242;2023-04-30T08:28:36;8.71;;;5.3;;
32451;SDS011;45528;52.102;5.242;2023-04-30T08:30:12;10.3;;;5.2;;
32451;SDS011;45528;52.102;5.242;2023-04-30T08:31:48;8.0;;;5.0;;
32451;SDS011;45528;52.102;5.242;2023-04-30T08:33:24;10.5;;;5.3;;
32451;SDS011;45528;52.102;5.242;2023-04-30T08:36:36;8.31;;;4.7;;
32451;SDS011;45528;52.102;5.242;2023-04-30T08:38:13;6.8;;;4.7;;
32451;SDS011;45528;52.102;5.242;2023-04-30T08:39:49;9.4;;;5.5;;
32451;SDS011;45528;52.102;5.242;2023-04-30T08:43:06;10.5;;;5.3;;
32451;SDS011;45528;52.102;5.242;2023-04-30T08:44:43;10.6;;;5.0;;
32451;SDS011;45528;52.102;5.242;2023-04-30T08:46:19;8.2;;;4.41;;
32451;SDS011;45528;52.102;5.242;2023-04-30T08:47:56;8.31;;;4.1;;
32451;SDS011;45528;52.102;5.242;2023-04-30T08:51:11;9.0;;;4.8;;
32451;SDS011;45528;52.102;5.242;2023-04-30T08:52:49;8.6;;;4.61;;
32451;SDS011;45528;52.102;5.242;2023-04-30T08:54:25;7.5;;;4.3;;
32451;SDS011;45528;52.102;5.242;2023-04-30T08:57:44;7.8;;;4.8;;
32451;SDS011;45528;52.102;5.242;2023-04-30T08:59:21;9.5;;;4.5;;
32451;SDS011;45528;52.102;5.242;2023-04-30T09:00:58;9.1;;;4.3;;
32451;SDS011;45528;52.102;5.242;2023-04-30T09:02:37;8.2;;;4.5;;
32451;SDS011;45528;52.102;5.242;2023-04-30T09:05:51;8.81;;;4.7;;
32451;SDS011;45528;52.102;5.242;2023-04-30T09:07:27;7.8;;;4.91;;
32451;SDS011;45528;52.102;5.242;2023-04-30T09:09:09;8.1;;;4.91;;
32451;SDS011;45528;52.102;5.242;2023-04-30T09:12:25;8.0;;;4.7;;
32451;SDS011;45528;52.102;5.242;2023-04-30T09:14:01;8.71;;;4.8;;
32451;SDS011;45528;52.102;5.242;2023-04-30T09:15:39;7.4;;;4.3;;
32451;SDS011;45528;52.102;5.242;2023-04-30T09:17:20;8.6;;;4.41;;
32451;SDS011;45528;52.102;5.242;2023-04-30T09:20:34;8.1;;;4.1;;
32451;SDS011;45528;52.102;5.242;2023-04-30T09:22:18;7.9;;;4.5;;
32451;SDS011;45528;52.102;5.242;2023-04-30T09:23:56;8.5;;;4.3;;
32451;SDS011;45528;52.102;5.242;2023-04-30T09:27:15;6.9;;;4.41;;
32451;SDS011;45528;52.102;5.242;2023-04-30T09:28:53;8.2;;;4.7;;
32451;SDS011;45528;52.102;5.242;2023-04-30T09:30:31;9.1;;;4.61;;
32451;SDS011;45528;52.102;5.242;2023-04-30T09:32:07;6.3;;;4.2;;
32451;SDS011;45528;52.102;5.242;2023-04-30T09:35:27;6.2;;;4.0;;
32451;SDS011;45528;52.102;5.242;2023-04-30T09:37:04;7.0;;;3.9;;
32451;SDS011;45528;52.102;5.242;2023-04-30T09:38:41;8.0;;;4.5;;
32451;SDS011;45528;52.102;5.242;2023-04-30T09:40:18;8.31;;;4.61;;
32451;SDS011;45528;52.102;5.242;2023-04-30T09:43:46;6.8;;;4.0;;
32451;SDS011;45528;52.102;5.242;2023-04-30T09:45:22;7.1;;;3.6;;
32451;SDS011;45528;52.102;5.242;2023-04-30T09:46:58;6.4;;;4.2;;
32451;SDS011;45528;52.102;5.242;2023-04-30T09:50:16;7.3;;;3.9;;
32451;SDS011;45528;52.102;5.242;2023-04-30T09:51:53;8.4;;;4.0;;
32451;SDS011;45528;52.102;5.242;2023-04-30T09:53:30;5.2;;;3.5;;
32451;SDS011;45528;52.102;5.242;2023-04-30T09:55:12;7.0;;;3.9;;
32451;SDS011;45528;52.102;5.242;2023-04-30T09:58:28;5.6;;;3.5;;
32451;SDS011;45528;52.102;5.242;2023-04-30T10:00:11;7.1;;;3.8;;
32451;SDS011;45528;52.102;5.242;2023-04-30T10:01:48;6.6;;;4.1;;
32451;SDS011;45528;52.102;5.242;2023-04-30T10:03:27;5.7;;;3.9;;
32451;SDS011;45528;52.102;5.242;2023-04-30T10:06:43;7.5;;;4.1;;
32451;SDS011;45528;52.102;5.242;2023-04-30T10:08:20;7.0;;;3.9;;
32451;SDS011;45528;52.102;5.242;2023-04-30T10:10:03;7.0;;;3.4;;
32451;SDS011;45528;52.102;5.242;2023-04-30T10:11:43;5.7;;;3.5;;
32451;SDS011;45528;52.102;5.242;2023-04-30T10:15:05;8.1;;;3.5;;
32451;SDS011;45528;52.102;5.242;2023-04-30T10:16:50;6.4;;;3.4;;
32451;SDS011;45528;52.102;5.242;2023-04-30T10:18:32;6.6;;;4.1;;
32451;SDS011;45528;52.102;5.242;2023-04-30T10:20:12;6.3;;;4.5;;
32451;SDS011;45528;52.102;5.242;2023-04-30T10:23:27;7.9;;;4.1;;
32451;SDS011;45528;52.102;5.242;2023-04-30T10:25:04;6.1;;;3.6;;
32451;SDS011;45528;52.102;5.242;2023-04-30T10:26:41;8.81;;;3.8;;
32451;SDS011;45528;52.102;5.242;2023-04-30T10:29:56;7.3;;;3.7;;
32451;SDS011;45528;52.102;5.242;2023-04-30T10:31:33;6.1;;;3.9;;
32451;SDS011;45528;52.102;5.242;2023-04-30T10:33:14;6.8;;;4.0;;
32451;SDS011;45528;52.102;5.242;2023-04-30T10:34:58;6.9;;;3.8;;
32451;SDS011;45528;52.102;5.242;2023-04-30T10:36:45;8.2;;;4.3;;
32451;SDS011;45528;52.102;5.242;2023-04-30T10:40:04;11.5;;;3.9;;
32451;SDS011;45528;52.102;5.242;2023-04-30T10:41:43;7.7;;;4.41;;
32451;SDS011;45528;52.102;5.242;2023-04-30T10:43:22;6.1;;;3.8;;
32451;SDS011;45528;52.102;5.242;2023-04-30T10:46:37;8.5;;;3.4;;
32451;SDS011;45528;52.102;5.242;2023-04-30T10:48:14;8.9;;;3.8;;
32451;SDS011;45528;52.102;5.242;2023-04-30T10:49:55;6.6;;;3.2;;
32451;SDS011;45528;52.102;5.242;2023-04-30T10:51:52;5.9;;;3.3;;
32451;SDS011;45528;52.102;5.242;2023-04-30T10:53:29;5.9;;;3.6;;
32451;SDS011;45528;52.102;5.242;2023-04-30T10:56:44;5.6;;;3.4;;
32451;SDS011;45528;52.102;5.242;2023-04-30T10:58:22;6.2;;;3.4;;
32451;SDS011;45528;52.102;5.242;2023-04-30T11:00:17;5.0;;;3.3;;
32451;SDS011;45528;52.102;5.242;2023-04-30T11:01:55;6.5;;;3.0;;
32451;SDS011;45528;52.102;5.242;2023-04-30T11:05:12;5.7;;;3.7;;
32451;SDS011;45528;52.102;5.242;2023-04-30T11:06:53;6.7;;;3.4;;
32451;SDS011;45528;52.102;5.242;2023-04-30T11:09:02;4.0;;;2.8;;
32451;SDS011;45528;52.102;5.242;2023-04-30T11:10:46;6.5;;;3.1;;
32451;SDS011;45528;52.102;5.242;2023-04-30T11:12:32;5.8;;;3.4;;
32451;SDS011;45528;52.102;5.242;2023-04-30T11:15:47;7.8;;;3.5;;
32451;SDS011;45528;52.102;5.242;2023-04-30T11:17:23;4.0;;;2.9;;
32451;SDS011;45528;52.102;5.242;2023-04-30T11:19:04;4.8;;;2.7;;
32451;SDS011;45528;52.102;5.242;2023-04-30T11:20:48;5.7;;;2.6;;
32451;SDS011;45528;52.102;5.242;2023-04-30T11:24:04;5.7;;;2.6;;
32451;SDS011;45528;52.102;5.242;2023-04-30T11:25:42;5.2;;;2.8;;
32451;SDS011;45528;52.102;5.242;2023-04-30T11:27:20;5.8;;;2.6;;
32451;SDS011;45528;52.102;5.242;2023-04-30T11:30:35;4.5;;;2.5;;
32451;SDS011;45528;52.102;5.242;2023-04-30T11:32:11;6.1;;;2.9;;
32451;SDS011;45528;52.102;5.242;2023-04-30T11:33:48;4.8;;;2.6;;
32451;SDS011;45528;52.102;5.242;2023-04-30T11:35:25;7.9;;;2.8;;
32451;SDS011;45528;52.102;5.242;2023-04-30T11:38:42;3.9;;;2.4;;
32451;SDS011;45528;52.102;5.242;2023-04-30T11:40:20;4.5;;;2.31;;
32451;SDS011;45528;52.102;5.242;2023-04-30T11:41:56;5.6;;;2.31;;
32451;SDS011;45528;52.102;5.242;2023-04-30T11:45:10;4.5;;;2.31;;
32451;SDS011;45528;52.102;5.242;2023-04-30T11:46:48;5.9;;;2.5;;
32451;SDS011;45528;52.102;5.242;2023-04-30T11:48:29;5.7;;;2.4;;
32451;SDS011;45528;52.102;5.242;2023-04-30T11:50:06;5.9;;;2.4;;
32451;SDS011;45528;52.102;5.242;2023-04-30T11:53:25;4.61;;;2.21;;
32451;SDS011;45528;52.102;5.242;2023-04-30T11:55:05;3.9;;;2.31;;
32451;SDS011;45528;52.102;5.242;2023-04-30T11:56:47;3.6;;;2.21;;
32451;SDS011;45528;52.102;5.242;2023-04-30T11:58:24;4.8;;;2.31;;
32451;SDS011;45528;52.102;5.242;2023-04-30T12:01:47;4.1;;;1.8;;
32451;SDS011;45528;52.102;5.242;2023-04-30T12:03:24;3.7;;;1.7;;
32451;SDS011;45528;52.102;5.242;2023-04-30T12:05:00;4.1;;;1.9;;
32451;SDS011;45528;52.102;5.242;2023-04-30T12:08:14;4.8;;;2.0;;
32451;SDS011;45528;52.102;5.242;2023-04-30T12:09:54;2.9;;;1.8;;
32451;SDS011;45528;52.102;5.242;2023-04-30T12:11:30;4.3;;;2.1;;
32451;SDS011;45528;52.102;5.242;2023-04-30T12:13:12;2.0;;;1.7;;
32451;SDS011;45528;52.102;5.242;2023-04-30T12:16:27;3.9;;;2.21;;
32451;SDS011;45528;52.102;5.242;2023-04-30T12:18:13;3.7;;;2.0;;
32451;SDS011;45528;52.102;5.242;2023-04-30T12:19:49;4.3;;;1.8;;
32451;SDS011;45528;52.102;5.242;2023-04-30T12:21:25;5.11;;;2.0;;
32451;SDS011;45528;52.102;5.242;2023-04-30T12:24:38;3.2;;;1.4;;
32451;SDS011;45528;52.102;5.242;2023-04-30T12:26:15;4.1;;;1.9;;
32451;SDS011;45528;52.102;5.242;2023-04-30T12:27:53;5.11;;;1.7;;
32451;SDS011;45528;52.102;5.242;2023-04-30T12:31:05;2.7;;;1.3;;
32451;SDS011;45528;52.102;5.242;2023-04-30T12:32:41;1.8;;;1.0;;
32451;SDS011;45528;52.102;5.242;2023-04-30T12:34:19;3.9;;;1.2;;
32451;SDS011;45528;52.102;5.242;2023-04-30T12:37:33;3.0;;;1.6;;
32451;SDS011;45528;52.102;5.242;2023-04-30T12:39:11;2.9;;;1.6;;
32451;SDS011;45528;52.102;5.242;2023-04-30T12:40:50;4.7;;;1.6;;
32451;SDS011;45528;52.102;5.242;2023-04-30T12:42:30;2.5;;;1.3;;
32451;SDS011;45528;52.102;5.242;2023-04-30T12:46:00;4.5;;;1.5;;
32451;SDS011;45528;52.102;5.242;2023-04-30T12:47:37;2.4;;;1.3;;